James Reserve, California Weather observations

Data are for 10 minute period ending at time listed.
 Day   Time   Solar   Ave.   Ave.  Ave.  Vector  Max.   Baro.   Total    
  of    of     Rad.   Air    Rel.  Wind   Wind   Wind  Press.  Precip.   
Year   Day            Temp.  Hum.  Speed  Dir.   Gust                    
2016   (PST)  Kw/m2    F      %     mph   deg.    mph    mb.     in.     
-------------------------------------------------------------------------
 344   16:00   0.01   47.8    76    0.3    69     0.5   841.0    0.00 
 344   16:10   0.01   46.3    80    0.2    88     0.6   841.0    0.00 
 344   16:20   0.01   45.3    82    0.3    70     0.7   841.0    0.00 
 344   16:30   0.00   44.3    84    0.3    64     0.4   841.0    0.00 
 344   16:40   0.00   43.5    85    0.3    46     0.6   841.0    0.00 
 344   16:50   0.00   42.8    86    0.3    49     0.5   841.0    0.00 
 344   17:00   0.00   42.1    88    0.2    35     0.4   841.0    0.00 
 344   17:10   0.00   41.4    89    0.2    43     0.5   841.0    0.00 
 344   17:20   0.00   40.9    90    0.3    30     0.4   841.0    0.00 
 344   17:30   0.00   40.4    91    0.2   346     0.4   841.0    0.00 
 344   17:40   0.00   39.7    92    0.3    26     0.5   841.0    0.00 
 344   17:50   0.00   39.4    92    0.3    21     0.4   841.0    0.00 
 344   18:00   0.00   39.0    92    0.3    23     0.7   841.0    0.00 
 344   18:10   0.00   38.7    93    0.2   345     0.4   841.0    0.00 
 344   18:20   0.00   38.2    94    0.2    38     0.4   841.0    0.00 
 344   18:30   0.00   37.9    94    0.2    24     0.5   841.0    0.00 
 344   18:40   0.00   37.7    95    0.2    20     0.4   841.0    0.00 
 344   18:50   0.00   37.4    95    0.2    20     0.4   841.0    0.00 
 344   19:00   0.00   37.1    95    0.2    23     0.4   841.0    0.00 
 344   19:10   0.00   36.9    95    0.2    36     0.4   841.0    0.00 
 344   19:20   0.00   36.7    96    0.3    28     0.4   841.0    0.00 
 344   19:30   0.00   36.6    96    0.3    23     0.5   841.0    0.00 
 344   19:40   0.00   36.5    96    0.3    11     0.4   841.0    0.00 
 344   19:50   0.00   36.4    96    0.3    23     0.6   841.0    0.00 
 344   20:00   0.00   36.3    96    0.2    18     0.5   841.0    0.00 
 344   20:10   0.00   36.3    96    0.3    18     0.6   841.0    0.00 
 344   20:20   0.00   36.2    97    0.4     8     0.7   842.0    0.00 
 344   20:30   0.00   36.1    97    0.3    35     0.5   842.0    0.00 
 344   20:40   0.00   36.0    97    0.3    23     0.6   842.0    0.00 
 344   20:50   0.00   35.9    97    0.3    27     0.5   841.0    0.00 
 344   21:00   0.00   35.8    97    0.3    18     0.6   841.0    0.00 
 344   21:10   0.00   35.6    97    0.3    43     0.5   841.0    0.00 
 344   21:20   0.00   35.4    97    0.3     9     0.6   841.0    0.00 
 344   21:30   0.00   35.3    97    0.3    15     0.5   841.0    0.00 
 344   21:40   0.00   35.1    97    0.5    25     0.7   842.0    0.00 
 344   21:50   0.00   35.1    97    0.5    28     0.8   842.0    0.00 
 344   22:00   0.00   34.9    97    0.3    31     0.5   842.0    0.00 
 344   22:10   0.00   34.7    97    0.3    23     0.4   842.0    0.00 
 344   22:20   0.00   34.6    97    0.3    24     0.5   842.0    0.00 
 344   22:30   0.00   34.5    97    0.3    25     0.6   842.0    0.00 
 344   22:40   0.00   34.4    97    0.2     8     0.3   842.0    0.00 
 344   22:50   0.00   34.2    97    0.3    25     0.7   842.0    0.00 
 344   23:00   0.00   34.2    97    0.3    30     0.6   842.0    0.00 
 344   23:10   0.00   34.3    98    0.3    20     0.5   842.0    0.00 
 344   23:20   0.00   34.3    98    0.3    19     0.5   842.0    0.00 
 344   23:30   0.00   34.2    98    0.3    22     0.6   842.0    0.00 
 344   23:40   0.00   34.1    98    0.2    18     0.5   842.0    0.00 
 344   23:50   0.00   34.1    98    0.3    39     0.6   842.0    0.00 
 345    0:00   0.00   34.2    98    0.3    39     0.7   842.0    0.00 
 345    0:10   0.00   34.1    98    0.2     7     0.3   841.0    0.00 
 345    0:20   0.00   34.2    98    0.2    30     0.4   841.0    0.00 
 345    0:30   0.00   34.0    98    0.3    37     0.6   841.0    0.00 
 345    0:40   0.00   34.1    98    0.3    33     0.5   841.0    0.00 
 345    0:50   0.00   34.1    98    0.2    19     0.4   841.0    0.00 
 345    1:00   0.00   34.1    98    0.2    25     0.4   841.0    0.00 
 345    1:10   0.00   34.1    98    0.3    32     0.6   842.0    0.00 
 345    1:20   0.00   34.3    98    0.4    26     0.6   841.0    0.00 
 345    1:30   0.00   34.3    98    0.4    11     0.8   841.0    0.00 
 345    1:40   0.00   34.2    98    0.3    34     0.7   841.0    0.00 
 345    1:50   0.00   34.1    98    0.4    23     1.1   841.0    0.00 
 345    2:00   0.00   34.0    98    0.3    25     0.6   841.0    0.00 
 345    2:10   0.00   33.8    98    0.3    30     0.6   841.0    0.00 
 345    2:20   0.00   33.6    98    0.3    26     0.5   841.0    0.00 
 345    2:30   0.00   33.4    98    0.4    37     0.7   841.0    0.00 
 345    2:40   0.00   33.4    98    0.4    15     0.8   841.0    0.00 
 345    2:50   0.00   33.3    98    0.4    34     0.6   841.0    0.00 
 345    3:00   0.00   33.5    98    0.5    34     1.0   841.0    0.00 
 345    3:10   0.00   33.5    98    0.6    33     1.3   841.0    0.00 
 345    3:20   0.00   33.3    98    0.3    18     0.9   840.0    0.00 
 345    3:30   0.00   33.1    98    0.4    34     1.1   840.0    0.00 
 345    3:40   0.00   33.0    98    0.3    38     0.7   840.0    0.00 
 345    3:50   0.00   33.1    98    0.4    39     0.7   840.0    0.00 
 345    4:00   0.00   33.2    98    0.5    36     0.9   840.0    0.00 
 345    4:10   0.00   33.3    98    0.4    35     0.9   840.0    0.00 
 345    4:20   0.00   33.4    98    0.3    34     0.5   840.0    0.00 
 345    4:30   0.00   33.3    98    0.3    31     0.6   841.0    0.00 
 345    4:40   0.00   33.3    98    0.3    34     0.6   841.0    0.00 
 345    4:50   0.00   33.4    98    0.3    33     0.6   841.0    0.00 
 345    5:00   0.00   33.6    97    0.4    38     1.4   841.0    0.00 
 345    5:10   0.00   33.7    97    0.3    32     0.7   841.0    0.00 
 345    5:20   0.00   33.8    97    0.3    36     0.7   841.0    0.00 
 345    5:30   0.00   33.9    96    0.4    28     0.8   841.0    0.00 
 345    5:40   0.00   33.8    96    0.3    43     0.7   841.0    0.00 
 345    5:50   0.00   34.1    96    0.4    33     0.7   841.0    0.00 
 345    6:00   0.00   34.4    96    0.4    38     0.8   841.0    0.00 
 345    6:10   0.00   34.8    96    0.3    26     0.8   840.0    0.00 
 345    6:20   0.00   35.0    96    0.3    42     0.6   840.0    0.00 
 345    6:30   0.00   35.1    97    0.3    32     0.6   841.0    0.00 
 345    6:40   0.00   35.3    97    0.5    43     1.0   840.0    0.00 
 345    6:50   0.00   35.5    97    0.6    36     1.3   840.0    0.00 
 345    7:00   0.00   35.7    97    0.4    36     1.2   840.0    0.00 
 345    7:10   0.01   35.7    97    0.4    55     1.1   841.0    0.00 
 345    7:20   0.01   36.1    97    0.4    47     1.1   841.0    0.00 
 345    7:30   0.02   36.3    97    0.5    40     1.1   841.0    0.00 
 345    7:40   0.02   36.8    97    0.5    60     1.2   841.0    0.00 
 345    7:50   0.02   37.3    97    0.5    41     0.9   841.0    0.00 
 345    8:00   0.03   37.9    97    0.5    52     1.0   841.0    0.00 
 345    8:10   0.03   38.4    96    0.5    54     1.0   841.0    0.00 
 345    8:20   0.04   38.9    96    0.4    56     0.9   841.0    0.00 
 345    8:30   0.04   39.3    96    0.4    46     0.7   841.0    0.00 
 345    8:40   0.04   40.0    96    0.5    58     0.7   841.0    0.00 
 345    8:50   0.03   40.8    96    0.4    63     0.6   841.0    0.00 
 345    9:00   0.03   41.1    95    0.4    69     0.8   841.0    0.00 
 345    9:10   0.03   42.2    93    0.6    76     1.2   841.0    0.00 
 345    9:20   0.03   43.2    90    0.4   128     1.1   841.0    0.00 
 345    9:30   0.04   44.6    87    0.5    96     1.1   842.0    0.00 
 345    9:40   0.04   46.1    83    0.5   168     1.1   842.0    0.00 
 345    9:50   0.04   48.4    75    0.7   143     1.6   842.0    0.00 
 345   10:00   0.04   49.0    75    0.5   163     1.0   842.0    0.00 
 345   10:10   0.05   50.7    68    0.7   172     1.8   842.0    0.00 
 345   10:20   0.05   51.6    66    0.6   170     1.6   842.0    0.00 
 345   10:30   0.13   52.7    62    0.8   134     1.6   841.0    0.00 
 345   10:40   0.15   53.9    58    0.6   101     1.9   841.0    0.00 
 345   10:50   0.18   55.4    55    0.8   135     1.9   841.0    0.00 
 345   11:00   0.13   56.5    52    1.0   171     2.5   841.0    0.00 
 345   11:10   0.29   56.9    52    1.0   142     2.0   841.0    0.00 
 345   11:20   0.43   57.7    52    1.1   188     2.7   841.0    0.00 
 345   11:30   0.59   58.2    51    1.1   169     3.0   841.0    0.00 
 345   11:40   0.64   58.9    50    1.2   176     2.8   841.0    0.00 
 345   11:50   0.62   58.9    52    1.1   172     2.8   841.0    0.00 
 345   12:00   0.62   57.8    54    1.3   184     3.5   841.0    0.00 
 345   12:10   0.63   57.8    54    0.9   182     3.1   840.0    0.00 
 345   12:20   0.64   57.7    54    1.2   196     2.8   840.0    0.00 
 345   12:30   0.61   57.9    55    1.0   184     1.9   840.0    0.00 
 345   12:40   0.59   57.6    56    1.3   182     2.8   840.0    0.00 
 345   12:50   0.56   56.8    56    0.9   151     2.2   840.0    0.00 
 345   13:00   0.52   56.3    58    0.7   202     1.6   840.0    0.00 
 345   13:10   0.51   55.6    60    0.5   217     1.4   840.0    0.00 
 345   13:20   0.25   56.0    59    0.8   228     1.8   840.0    0.00 
 345   13:30   0.14   55.6    58    0.8   192     1.7   840.0    0.00 
 345   13:40   0.14   55.7    57    0.9   169     2.5   840.0    0.00 
 345   13:50   0.08   55.5    56    0.7   196     2.0   840.0    0.00 
 345   14:00   0.05   54.9    59    0.8   230     1.8   840.0    0.00 
 345   14:10   0.06   54.5    60    0.7   234     1.9   840.0    0.00 
 345   14:20   0.07   54.0    61    0.7   213     1.7   840.0    0.00 
 345   14:30   0.09   53.8    62    0.7   233     2.3   840.0    0.00 
 345   14:40   0.06   53.8    64    0.6   204     1.5   840.0    0.00 
 345   14:50   0.06   53.7    65    0.7   208     1.3   840.0    0.00 
 345   15:00   0.07   53.9    65    0.4    26     1.3   840.0    0.00 
 345   15:10   0.05   52.9    69    0.4   145     1.4   839.0    0.00 
 345   15:20   0.05   52.9    69    0.4   151     1.1   840.0    0.00 
 345   15:30   0.03   52.8    68    0.7   177     2.0   839.0    0.00 
 345   15:40   0.03   51.9    71    0.8   129     1.9   839.0    0.00 
 345   15:50   0.03   51.2    73    0.4   104     1.1   839.0    0.00 

Return to James Reserve graphs page.


Western Regional Climate Center,wrcc@dri.edu